Aérodrome :
LOGIN :

S'inscrire | Disclaimer

   EN    FR    IT 

 










Légende :    VFR   VFR Marginal   IFR   IFR Intensif   IFR Très Intensif
Visi : 
Plafond : 
>= 8 km
>= 3000ft
5 à 8 km
1000 à 3000 ft
1500m à 5 km
500 à 1000 ft
800 à 1500m
200 à 500 ft
< 800m
< 200 ft
Symboles :   Orages  Brouillard  Fortes neiges  Fortes précipitations  Vent > 20 kt
SIGMETs :   Divers  Orages  Givrage  Turbulence  Onde Orograph.  Cendres Volcan.







- Altitude de l'aérodrome : 299 ft
- Code IATA : EDM
- Voir les cartes d'approche


LFRI - La Roche Sur Yon - Les Ajoncs

DERNIER METAR :
  • 131600Z AUTO 06011KT 9999 FEW009 OVC092 03/01 Q1009 NOSIG

METARs EXPIRÉS :
  • 131530Z AUTO 05011KT CAVOK 03/02 Q1008 NOSIG
  • 131500Z AUTO 06010KT CAVOK 04/02 Q1008 TEMPO 4000 -DZ BKN005
  • 131430Z AUTO 06010KT 9999 FEW009 SCT070 BKN082 04/03 Q1007 TEMPO 4000 -DZ BKN005
  • 131400Z AUTO 06010KT 9999 -DZ NSC 04/03 Q1007 TEMPO 4000 -DZ BKN005
  • 131330Z AUTO 07008KT 9999 FEW008 OVC066 04/03 Q1007 TEMPO 4000 -DZ BKN005

TAF AMD TAF LFRI
Valide du 13 à 14h jusqu'au 14 à 12h UTC


131448Z 1314/1412 10010KT 9999 SCT010 BKN040
BECMG 1316/1320 VRB04KT
PROB30
TEMPO 1403/1409 BKN004
BECMG 1409/1412 CAVOK
Pas de NOTAMs connus pour ce terrain.
1 SIGMET publié pour la FIR Brest (LFRR) :
 
Turbulence forte
LFRR SIGMET 3 VALID 131600/132000 LFPW
LFRR BREST FIR/UIR SEV TURB FCST WI N4830 W00800 - N4900 W00800 - N4930 W00530 - N4400 W00400 - N4445 W00730 - N4830 W00800 FL200/360 MOV E 15KT NC=



MET'MAP, la Météo Aéronautique d'un coup d'oeil ! - Copyright ORBIFLY Décembre 2007 - Disclaimer

ORBIFLY MET'MAP TEAM :

Programmation & Développement : Alexandra Zaïnal
Conception & Développement : Baudouin d'Aumeries
Co-Programmation & Développement : Marc-Olivier Méhu
Soutien technique & logistique : Manuel Goepfert

Contact : metmap@orbifly.com




SOURCES & CREDITS :

   NOAA